Time;durP1;ratioP1;P1;durP2;ratioP2;P2;SDS_P1;SDS_P2;PMS_P1;PMS_P2;Temp;Humidity;BMP_temperature;BMP_pressure;BME280_temperature;BME280_humidity;BME280_pressure;Samples;Min_cycle;Max_cycle;Signal;HPM_P1;HPM_P2
2021/09/02 00:00:31;;;;;;;;;17.75;15.75;;;;;17.51;56.61;101744.09;5095620;27;45690;-85
2021/09/02 00:02:57;;;;;;;;;18.75;18.25;;;;;17.65;56.52;101769.50;5095277;27;45566;-82
2021/09/02 00:05:22;;;;;;;;;16.00;15.50;;;;;17.59;56.77;101769.03;5095338;27;46162;-80
2021/09/02 00:07:47;;;;;;;;;16.25;14.00;;;;;17.55;56.43;101759.59;5095378;27;45583;-85
2021/09/02 00:10:13;;;;;;;;;19.00;16.25;;;;;17.60;56.61;101772.50;5095480;27;45439;-84
2021/09/02 00:12:38;;;;;;;;;13.75;13.00;;;;;17.51;56.45;101759.97;5095190;27;46325;-79
2021/09/02 00:15:06;;;;;;;;;17.25;15.00;;;;;17.56;56.79;101763.94;5095435;27;45611;-81
2021/09/02 00:17:31;;;;;;;;;16.00;15.00;;;;;17.54;57.00;101755.25;5094901;27;45704;-80
2021/09/02 00:19:56;;;;;;;;;18.00;15.00;;;;;17.52;56.78;101762.50;5094898;27;45580;-82
2021/09/02 00:25:43;;;;;;;;;15.75;14.50;;;;;17.47;57.07;101754.09;5094333;27;45964;-81
2021/09/02 00:28:08;;;;;;;;;16.50;13.25;;;;;17.37;57.21;101741.72;5094807;27;45683;-78
2021/09/02 00:30:34;;;;;;;;;16.50;15.25;;;;;17.38;56.87;101738.13;5094722;27;45600;-81
2021/09/02 00:32:59;;;;;;;;;14.00;14.00;;;;;17.32;56.81;101726.22;5094519;27;47314;-81
2021/09/02 00:35:25;;;;;;;;;19.25;15.50;;;;;17.40;57.36;101736.16;5093962;27;45733;-77
2021/09/02 00:41:11;;;;;;;;;13.75;13.50;;;;;17.35;57.43;101723.31;5094883;27;45575;-80
2021/09/02 00:43:39;;;;;;;;;19.25;18.00;;;;;17.42;57.12;101728.94;5094207;27;47031;-81
2021/09/02 00:46:08;;;;;;;;;17.50;15.25;;;;;17.41;57.05;101736.06;5095135;27;45674;-80
2021/09/02 00:48:34;;;;;;;;;17.75;15.50;;;;;17.31;57.03;101721.88;5095180;27;45848;-80
2021/09/02 00:51:00;;;;;;;;;17.75;17.25;;;;;17.38;57.68;101736.28;5094611;27;45427;-82
2021/09/02 00:53:26;;;;;;;;;20.50;14.75;;;;;17.37;57.23;101723.19;5094095;27;47428;-78
2021/09/02 00:55:51;;;;;;;;;18.75;16.25;;;;;17.34;57.39;101726.06;5094161;27;45815;-80
2021/09/02 00:58:20;;;;;;;;;18.75;17.00;;;;;17.34;57.75;101731.38;5101223;27;45655;-82
2021/09/02 01:00:47;;;;;;;;;19.00;16.75;;;;;17.34;57.15;101741.97;5101351;27;45517;-80
2021/09/02 01:03:17;;;;;;;;;17.50;16.75;;;;;17.32;57.64;101731.50;5099848;27;47508;-78
2021/09/02 01:05:42;;;;;;;;;17.25;16.75;;;;;17.33;57.19;101741.13;5099625;27;45426;-85
2021/09/02 01:11:29;;;;;;;;;18.00;15.50;;;;;17.27;57.30;101730.22;5094646;27;45539;-80
2021/09/02 01:13:55;;;;;;;;;14.50;14.25;;;;;17.27;57.83;101746.94;5094702;27;45718;-80
2021/09/02 01:16:20;;;;;;;;;18.00;15.50;;;;;16.96;57.43;101689.44;5094825;27;46274;-79
2021/09/02 01:18:45;;;;;;;;;20.50;17.00;;;;;17.24;57.78;101738.38;5094700;27;45841;-80
2021/09/02 01:21:11;;;;;;;;;21.75;20.00;;;;;17.23;58.00;101745.47;5094344;27;45729;-79
2021/09/02 01:23:40;;;;;;;;;17.25;15.75;;;;;17.20;57.67;101733.34;5094382;27;45599;-82
2021/09/02 01:26:16;;;;;;;;;17.25;16.00;;;;;17.18;57.62;101724.66;5094902;27;46104;-82
2021/09/02 01:28:43;;;;;;;;;18.00;15.00;;;;;17.17;57.55;101724.78;5094730;27;45592;-81
2021/09/02 01:31:12;;;;;;;;;16.75;15.25;;;;;17.17;58.14;101715.03;5095818;27;45729;-80
2021/09/02 01:33:43;;;;;;;;;19.00;17.25;;;;;17.12;57.95;101711.91;5095402;27;45566;-79
2021/09/02 01:36:09;;;;;;;;;18.25;15.50;;;;;17.11;57.70;101712.06;5094559;27;46436;-77
2021/09/02 01:41:57;;;;;;;;;18.25;16.75;;;;;17.05;58.17;101713.41;5095299;27;45567;-80
2021/09/02 01:44:24;;;;;;;;;17.00;17.00;;;;;16.96;57.98;101697.38;5093611;27;45613;-78
2021/09/02 01:46:49;;;;;;;;;17.50;16.50;;;;;16.91;58.32;101700.41;5093846;27;47058;-79
2021/09/02 01:49:16;;;;;;;;;17.00;16.00;;;;;16.94;58.13;101708.13;5097924;27;45612;-80
2021/09/02 01:51:44;;;;;;;;;18.00;16.00;;;;;16.89;58.26;101707.66;5097580;27;45578;-80
2021/09/02 01:54:10;;;;;;;;;17.50;16.00;;;;;16.87;58.44;101711.38;5098058;27;45580;-81
2021/09/02 01:56:35;;;;;;;;;24.25;19.50;;;;;16.88;58.29;101715.72;5098165;27;45560;-82
2021/09/02 01:59:01;;;;;;;;;19.00;16.75;;;;;16.87;58.30;101706.09;5101124;27;45630;-84
2021/09/02 02:01:26;;;;;;;;;18.25;15.50;;;;;16.83;58.36;101702.84;5098960;27;45567;-82
2021/09/02 02:03:52;;;;;;;;;22.25;18.00;;;;;16.82;58.30;101708.25;5099491;27;46214;-80
2021/09/02 02:06:17;;;;;;;;;23.75;17.25;;;;;16.79;58.45;101715.47;5098210;27;45664;-83
2021/09/02 02:12:05;;;;;;;;;21.50;19.00;;;;;16.74;58.75;101707.03;5102461;27;45720;-80
2021/09/02 02:14:30;;;;;;;;;18.25;16.75;;;;;16.69;58.86;101696.00;5098022;27;45552;-81
2021/09/02 02:16:56;;;;;;;;;20.25;17.50;;;;;16.71;58.60;101701.16;5082294;27;47220;-78
2021/09/02 02:19:21;;;;;;;;;21.00;19.75;;;;;16.65;58.79;101688.41;5101340;27;45525;-78
2021/09/02 02:21:46;;;;;;;;;22.50;18.75;;;;;16.63;58.75;101685.88;5102870;27;45519;-78
2021/09/02 02:24:12;;;;;;;;;20.75;17.75;;;;;16.49;59.15;101666.75;5103808;27;45727;-80
2021/09/02 02:26:38;;;;;;;;;21.50;17.75;;;;;16.60;59.01;101680.00;5107778;27;45196;-80
2021/09/02 02:29:03;;;;;;;;;19.50;17.00;;;;;16.57;59.27;101678.41;5094919;27;45354;-80
2021/09/02 02:31:29;;;;;;;;;22.75;20.00;;;;;16.51;59.15;101684.19;5103836;27;45520;-80
2021/09/02 02:33:54;;;;;;;;;20.25;17.00;;;;;16.53;59.11;101686.69;5116306;27;45574;-80
2021/09/02 02:36:20;;;;;;;;;20.75;17.75;;;;;16.50;59.20;101690.44;5122218;27;45186;-81
2021/09/02 02:42:09;;;;;;;;;23.50;17.00;;;;;16.44;59.09;101683.00;5120328;27;45105;-80
2021/09/02 02:44:35;;;;;;;;;21.75;20.50;;;;;16.34;59.42;101668.81;5114120;27;46674;-81
2021/09/02 02:47:00;;;;;;;;;23.25;20.00;;;;;16.32;59.41;101663.63;5124430;27;45045;-82
2021/09/02 02:49:26;;;;;;;;;18.75;16.00;;;;;16.42;59.38;101678.75;5123311;27;45102;-87
2021/09/02 02:51:52;;;;;;;;;20.50;18.25;;;;;16.41;59.00;101682.41;5118754;27;44996;-81
2021/09/02 02:58:06;;;;;;;;;23.00;19.25;;;;;16.33;59.71;101669.75;5097461;27;45853;-82
2021/09/02 03:00:31;;;;;;;;;23.75;20.50;;;;;16.31;59.64;101666.38;5096067;27;45686;-84
2021/09/02 03:02:57;;;;;;;;;24.75;21.00;;;;;16.30;59.93;101668.19;5097991;27;45626;-80
2021/09/02 03:05:22;;;;;;;;;25.75;22.50;;;;;16.29;59.79;101658.59;5098520;27;45654;-83
2021/09/02 03:07:48;;;;;;;;;19.25;18.00;;;;;16.03;59.84;101616.63;5097679;27;45729;-81
2021/09/02 03:10:13;;;;;;;;;20.50;18.50;;;;;16.29;59.70;101657.75;5101898;27;45537;-84
2021/09/02 03:12:39;;;;;;;;;19.25;17.75;;;;;16.26;60.00;101656.16;5097361;27;45812;-83
2021/09/02 03:15:06;;;;;;;;;22.75;21.00;;;;;16.27;60.04;101662.31;5097359;27;46345;-79
2021/09/02 03:17:32;;;;;;;;;22.25;20.00;;;;;16.18;60.15;101653.28;5097752;27;45935;-80
2021/09/02 03:19:57;;;;;;;;;23.50;20.25;;;;;16.24;60.08;101671.34;5099998;27;45465;-79
2021/09/02 03:22:23;;;;;;;;;19.50;17.50;;;;;16.23;59.97;101671.44;5098103;27;45661;-80
2021/09/02 03:24:48;;;;;;;;;25.00;21.00;;;;;16.21;60.09;101668.91;5096927;27;46587;-81
2021/09/02 03:27:13;;;;;;;;;23.00;21.25;;;;;16.10;60.07;101655.69;5096550;27;46104;-80
2021/09/02 03:29:39;;;;;;;;;24.50;22.50;;;;;16.13;60.43;101658.09;5096942;27;45722;-82
2021/09/02 03:32:04;;;;;;;;;27.50;20.75;;;;;16.17;60.23;101656.88;5097492;27;45545;-79
2021/09/02 03:34:30;;;;;;;;;18.75;18.25;;;;;16.03;60.12;101635.97;5097449;27;45615;-83
2021/09/02 03:36:55;;;;;;;;;22.25;20.75;;;;;16.12;60.19;101645.00;5097714;27;46060;-81
2021/09/02 03:42:42;;;;;;;;;24.50;21.00;;;;;16.09;60.31;101643.41;5095807;27;45585;-81
2021/09/02 03:45:08;;;;;;;;;22.00;21.75;;;;;16.08;60.47;101647.03;5096264;27;45536;-81
2021/09/02 03:47:34;;;;;;;;;27.75;22.25;;;;;16.06;60.46;101635.72;5095718;27;46139;-81
2021/09/02 03:50:00;;;;;;;;;20.00;18.50;;;;;16.05;60.43;101639.34;5095717;27;45884;-80
2021/09/02 03:52:26;;;;;;;;;23.50;20.75;;;;;16.03;60.70;101633.34;5096072;27;45735;-82
2021/09/02 03:58:13;;;;;;;;;25.75;22.75;;;;;16.00;60.65;101630.91;5095116;27;46092;-81
2021/09/02 04:00:38;;;;;;;;;26.50;21.50;;;;;15.99;60.69;101633.66;5096426;27;45726;-79
2021/09/02 04:03:03;;;;;;;;;22.50;21.75;;;;;15.95;60.77;101627.78;5098838;27;45505;-79
2021/09/02 04:05:29;;;;;;;;;21.25;19.00;;;;;15.80;60.46;101599.91;5099126;27;46568;-80
2021/09/02 04:07:54;;;;;;;;;23.00;20.00;;;;;15.92;60.80;101623.56;5097708;27;45490;-80
2021/09/02 04:10:20;;;;;;;;;29.00;22.00;;;;;15.94;61.04;101641.97;5094356;27;45816;-82
2021/09/02 04:12:45;;;;;;;;;25.75;20.00;;;;;15.91;60.82;101652.78;5095717;27;45638;-79
2021/09/02 04:15:10;;;;;;;;;28.25;20.25;;;;;15.85;60.81;101651.44;5095688;27;46416;-83
2021/09/02 04:17:36;;;;;;;;;23.75;21.50;;;;;15.89;60.86;101660.81;5095471;27;46153;-79
2021/09/02 04:20:02;;;;;;;;;26.50;22.75;;;;;15.89;60.98;101657.34;5093773;27;45640;-79
2021/09/02 04:22:27;;;;;;;;;26.00;23.25;;;;;15.80;60.78;101637.75;5096045;27;45671;-81
2021/09/02 04:28:15;;;;;;;;;19.00;18.00;;;;;15.78;61.16;101647.56;5100705;27;45697;-80
2021/09/02 04:30:40;;;;;;;;;24.50;21.50;;;;;15.62;61.10;101625.94;5099199;27;45638;-81
2021/09/02 04:33:06;;;;;;;;;26.25;22.50;;;;;15.75;61.15;101649.63;5101507;27;45648;-85
2021/09/02 04:35:31;;;;;;;;;28.00;24.25;;;;;15.72;61.08;101647.19;5099772;27;45629;-82
2021/09/02 04:37:57;;;;;;;;;29.00;22.50;;;;;15.70;61.20;101642.06;5096658;27;45666;-83
2021/09/02 04:43:44;;;;;;;;;25.25;23.25;;;;;15.59;61.34;101633.25;5095632;27;45612;-83
2021/09/02 04:46:11;;;;;;;;;22.50;21.25;;;;;15.63;61.51;101654.03;5096207;27;46758;-82
2021/09/02 04:48:37;;;;;;;;;23.75;20.00;;;;;15.56;61.62;101644.03;5097795;27;46533;-83
2021/09/02 04:51:03;;;;;;;;;29.25;26.50;;;;;15.58;61.85;101640.34;5096480;27;45678;-83
2021/09/02 04:53:28;;;;;;;;;28.00;23.75;;;;;15.57;61.44;101646.56;5097833;27;45870;-82
2021/09/02 04:55:54;;;;;;;;;24.50;23.50;;;;;15.52;61.62;101646.06;5099908;27;46666;-77
2021/09/02 04:58:19;;;;;;;;;28.25;21.25;;;;;15.51;61.50;101645.22;5094931;27;45986;-82
2021/09/02 05:00:45;;;;;;;;;29.25;24.00;;;;;15.52;61.81;101646.06;5095157;27;45555;-79
2021/09/02 05:03:10;;;;;;;;;30.50;25.75;;;;;15.53;61.53;101653.03;5096969;27;45512;-81
2021/09/02 05:05:36;;;;;;;;;25.25;22.00;;;;;15.47;61.77;101640.25;5095866;27;46164;-82
2021/09/02 05:08:02;;;;;;;;;22.75;21.75;;;;;15.35;61.86;101623.53;5095786;27;46486;-84
2021/09/02 05:13:49;;;;;;;;;28.00;24.25;;;;;15.45;61.88;101640.38;5094811;27;45879;-80
2021/09/02 05:16:15;;;;;;;;;32.25;26.25;;;;;15.36;61.81;101622.59;5094837;27;46161;-83
2021/09/02 05:18:41;;;;;;;;;27.75;23.50;;;;;15.40;62.25;101633.75;5094484;27;45649;-84
2021/09/02 05:21:06;;;;;;;;;26.50;23.00;;;;;15.37;61.75;101639.28;5095071;27;45654;-82
2021/09/02 05:23:31;;;;;;;;;33.00;24.50;;;;;15.32;62.23;101639.63;5098019;27;45880;-80
2021/09/02 05:25:57;;;;;;;;;25.75;22.00;;;;;15.29;62.33;101638.97;5099309;27;45724;-80
2021/09/02 05:28:22;;;;;;;;;27.50;22.25;;;;;15.34;62.30;101642.97;5099388;27;46483;-82
2021/09/02 05:30:47;;;;;;;;;28.25;24.50;;;;;15.34;62.37;101639.47;5100143;27;45635;-80
2021/09/02 05:33:16;;;;;;;;;28.75;25.25;;;;;15.31;62.16;101632.66;5098785;27;45837;-86
2021/09/02 05:35:41;;;;;;;;;28.00;24.25;;;;;15.28;61.97;101616.16;5100808;27;46176;-80
2021/09/02 05:38:11;;;;;;;;;35.50;28.00;;;;;15.32;62.21;101629.06;5099421;27;45520;-86
2021/09/02 05:43:58;;;;;;;;;28.50;24.75;;;;;15.29;62.38;101636.34;5099389;27;45744;-89
2021/09/02 05:46:24;;;;;;;;;25.75;24.00;;;;;15.26;62.52;101634.78;5101130;27;46161;-79
2021/09/02 05:48:49;;;;;;;;;27.00;22.50;;;;;15.27;62.45;101648.84;5099678;27;45942;-79
2021/09/02 05:51:14;;;;;;;;;33.00;27.75;;;;;15.27;62.31;101648.84;5097956;27;45737;-80
2021/09/02 05:53:40;;;;;;;;;26.25;23.25;;;;;15.24;62.43;101644.59;5098654;27;45560;-85
2021/09/02 05:59:27;;;;;;;;;30.50;24.25;;;;;15.16;62.72;101640.88;5097940;27;45739;-80
2021/09/02 06:01:52;;;;;;;;;28.25;24.00;;;;;15.19;62.58;101644.09;5099791;27;45635;-80
2021/09/02 06:04:18;;;;;;;;;27.75;25.25;;;;;15.21;62.75;101654.56;5100454;27;45582;-80
2021/09/02 06:06:43;;;;;;;;;30.25;24.75;;;;;15.20;62.84;101643.16;5100352;27;46683;-88
2021/09/02 06:09:08;;;;;;;;;27.75;23.75;;;;;15.20;62.72;101644.97;5103078;27;46358;-80
2021/09/02 06:11:34;;;;;;;;;35.00;26.25;;;;;15.20;62.69;101647.59;5104232;27;45543;-82
2021/09/02 06:14:00;;;;;;;;;33.25;27.50;;;;;15.17;63.00;101655.75;5105188;27;45508;-80
2021/09/02 06:16:26;;;;;;;;;28.50;24.00;;;;;15.20;63.10;101661.63;5104971;27;46615;-84
2021/09/02 06:18:51;;;;;;;;;37.50;30.00;;;;;15.22;62.63;101650.97;5103000;27;45720;-81
2021/09/02 06:21:16;;;;;;;;;35.00;30.50;;;;;15.22;62.65;101653.63;5100907;27;45564;-80
2021/09/02 06:23:42;;;;;;;;;30.50;28.00;;;;;15.22;62.86;101653.63;5098656;27;45628;-79
2021/09/02 06:29:29;;;;;;;;;33.25;26.25;;;;;15.22;62.75;101650.97;5097028;27;45501;-78
2021/09/02 06:31:54;;;;;;;;;33.25;30.50;;;;;15.17;62.90;101642.56;5097636;27;45754;-83
2021/09/02 06:34:20;;;;;;;;;29.75;25.75;;;;;15.21;62.97;101647.50;5096208;27;45497;-77
2021/09/02 06:36:45;;;;;;;;;32.75;26.50;;;;;15.22;63.05;101646.53;5098597;27;46697;-85
2021/09/02 06:39:12;;;;;;;;;31.00;25.00;;;;;15.29;62.76;101654.81;5100619;27;45528;-88
2021/09/02 06:44:59;;;;;;;;;37.75;30.75;;;;;15.30;62.82;101649.44;5100854;27;45523;-81
2021/09/02 06:47:24;;;;;;;;;32.50;28.50;;;;;15.34;62.83;101650.03;5097375;27;46355;-81
2021/09/02 06:49:50;;;;;;;;;34.50;28.75;;;;;15.37;63.09;101652.47;5105564;27;45572;-83
2021/09/02 06:52:15;;;;;;;;;32.75;30.50;;;;;15.35;62.79;101647.28;5107798;27;45443;-88
2021/09/02 06:54:41;;;;;;;;;36.00;33.50;;;;;15.43;62.97;101658.16;5101780;27;45592;-77
2021/09/02 06:57:09;;;;;;;;;42.75;35.75;;;;;15.46;62.74;101662.34;5095688;27;47201;-76
2021/09/02 06:59:34;;;;;;;;;34.00;29.25;;;;;15.43;62.71;101644.94;5097213;27;46143;-82
2021/09/02 07:01:59;;;;;;;;;29.00;26.00;;;;;15.52;62.72;101664.56;5095401;27;45506;-84
2021/09/02 07:04:25;;;;;;;;;30.50;27.00;;;;;15.57;62.97;101656.28;5095795;27;45897;-81
2021/09/02 07:06:51;;;;;;;;;38.75;30.25;;;;;15.61;62.83;101655.09;5098390;27;45741;-77
2021/09/02 07:09:16;;;;;;;;;37.75;31.25;;;;;15.60;62.98;101650.78;5098407;27;46040;-81
2021/09/02 07:15:04;;;;;;;;;30.25;27.75;;;;;15.60;62.69;101646.31;5098321;27;45528;-84
2021/09/02 07:17:29;;;;;;;;;34.00;26.00;;;;;15.66;62.97;101661.72;5098746;27;45576;-78
2021/09/02 07:19:54;;;;;;;;;30.00;27.75;;;;;15.70;62.67;101649.97;5098606;27;46210;-81
2021/09/02 07:22:20;;;;;;;;;34.50;30.00;;;;;15.67;62.51;101654.63;5099080;27;46041;-84
2021/09/02 07:24:45;;;;;;;;;37.75;33.25;;;;;15.70;62.69;101657.06;5098389;27;45800;-79
2021/09/02 07:30:32;;;;;;;;;31.25;28.00;;;;;15.82;62.61;101672.81;5096008;27;46183;-77
2021/09/02 07:32:58;;;;;;;;;32.50;29.25;;;;;15.82;62.65;101670.16;5095958;27;45523;-78
2021/09/02 07:35:23;;;;;;;;;29.25;26.25;;;;;15.89;62.56;101665.25;5096302;27;45516;-77
2021/09/02 07:37:49;;;;;;;;;34.00;28.00;;;;;15.93;62.82;101667.53;5096268;27;45786;-82
2021/09/02 07:40:14;;;;;;;;;37.75;31.00;;;;;15.90;62.78;101656.38;5096008;27;45653;-77
2021/09/02 07:42:40;;;;;;;;;38.75;29.25;;;;;15.98;62.50;101655.81;5097592;27;46210;-79
2021/09/02 07:45:06;;;;;;;;;33.25;29.75;;;;;16.04;62.45;101658.78;5095209;27;45584;-77
2021/09/02 07:47:33;;;;;;;;;36.75;30.50;;;;;16.08;62.53;101657.63;5094713;27;46314;-74
2021/09/02 07:50:00;;;;;;;;;34.75;31.25;;;;;16.14;62.23;101664.22;5096219;27;47181;-79
2021/09/02 07:52:25;;;;;;;;;38.00;31.50;;;;;16.17;62.47;101656.06;5097426;27;45852;-76
2021/09/02 07:54:50;;;;;;;;;33.75;31.00;;;;;16.24;62.19;101654.63;5097930;27;45603;-82
2021/09/02 08:00:38;;;;;;;;;31.75;29.25;;;;;16.26;62.35;101636.81;5094425;27;45706;-80
2021/09/02 08:03:04;;;;;;;;;33.50;28.25;;;;;16.33;62.00;101645.94;5100363;27;45576;-85
2021/09/02 08:05:29;;;;;;;;;37.00;32.25;;;;;16.41;62.31;101645.38;5100307;27;45916;-75
2021/09/02 08:07:55;;;;;;;;;33.00;29.50;;;;;16.45;62.10;101658.22;5099662;27;46247;-82
2021/09/02 08:10:24;;;;;;;;;36.00;30.75;;;;;16.45;61.93;101655.56;5100882;27;47137;-84
2021/09/02 08:12:50;;;;;;;;;35.00;30.50;;;;;16.50;62.02;101653.41;5100278;27;45587;-77
2021/09/02 08:15:17;;;;;;;;;33.50;29.00;;;;;16.54;62.01;101646.91;5100220;27;45567;-83
2021/09/02 08:17:43;;;;;;;;;36.00;31.50;;;;;16.59;62.14;101649.22;5098526;27;45816;-81
2021/09/02 08:20:11;;;;;;;;;34.25;29.00;;;;;16.62;61.79;101646.34;5095472;27;46331;-77
2021/09/02 08:22:39;;;;;;;;;39.50;30.00;;;;;16.59;61.78;101625.41;5094227;27;45527;-77
2021/09/02 08:25:04;;;;;;;;;38.50;33.25;;;;;16.66;61.80;101631.88;5093863;27;45603;-79
2021/09/02 08:30:52;;;;;;;;;39.00;28.00;;;;;16.76;61.60;101636.31;5093135;27;46214;-78
2021/09/02 08:33:17;;;;;;;;;37.50;32.00;;;;;16.79;61.86;101624.63;5094228;27;45611;-74
2021/09/02 08:35:42;;;;;;;;;33.50;28.00;;;;;16.86;61.41;101619.69;5094174;27;45625;-81
2021/09/02 08:38:09;;;;;;;;;46.25;33.00;;;;;16.82;61.74;101607.66;5094224;27;46439;-77
2021/09/02 08:40:37;;;;;;;;;35.50;31.75;;;;;16.95;61.53;101622.41;5094000;27;45634;-78
2021/09/02 08:43:03;;;;;;;;;36.00;29.00;;;;;16.96;61.63;101624.09;5093724;27;45714;-76
2021/09/02 08:45:30;;;;;;;;;33.25;30.00;;;;;17.05;61.14;101626.03;5093682;27;45679;-80
2021/09/02 08:47:56;;;;;;;;;40.25;31.75;;;;;17.02;61.35;101599.78;5093534;27;45609;-76
2021/09/02 08:50:25;;;;;;;;;38.50;32.25;;;;;17.13;61.47;101615.63;5093819;27;46295;-77
2021/09/02 08:52:52;;;;;;;;;41.50;34.50;;;;;17.18;61.38;101615.25;5093582;27;45851;-82
2021/09/02 08:55:17;;;;;;;;;40.75;33.25;;;;;17.23;61.10;101607.75;5094126;27;45646;-84
2021/09/02 09:01:06;;;;;;;;;36.00;30.25;;;;;17.39;60.85;101608.16;5096543;27;45718;-83
2021/09/02 09:03:42;;;;;;;;;36.50;32.00;;;;;17.47;61.07;101618.13;5096404;27;45651;-83
2021/09/02 09:06:12;;;;;;;;;34.75;30.00;;;;;17.45;60.71;101607.66;5098579;27;45663;-77
2021/09/02 09:08:49;;;;;;;;;36.50;30.75;;;;;17.53;60.49;101599.06;5096705;27;46670;-78
2021/09/02 09:11:26;;;;;;;;;37.75;34.00;;;;;17.68;60.55;101608.41;5097757;27;46150;-75
2021/09/02 09:14:14;;;;;;;;;34.50;30.25;;;;;17.76;60.83;101615.72;5097772;27;45887;-80
2021/09/02 09:16:54;;;;;;;;;35.75;31.25;;;;;17.69;60.86;101586.22;5079534;27;45858;-78
2021/09/02 09:19:39;;;;;;;;;37.00;31.50;;;;;17.87;60.64;101608.50;5097478;27;46549;-78
2021/09/02 09:22:08;;;;;;;;;39.25;33.00;;;;;17.91;60.81;101601.97;5097847;27;46170;-76
2021/09/02 09:24:42;;;;;;;;;38.00;31.25;;;;;17.96;60.14;101604.22;5097613;27;45676;-78
2021/09/02 09:27:14;;;;;;;;;38.75;32.00;;;;;17.98;60.61;101597.81;5097189;27;45869;-76
2021/09/02 09:29:40;;;;;;;;;36.75;30.00;;;;;18.07;60.06;101582.06;5096838;27;46401;-79
2021/09/02 09:32:18;;;;;;;;;38.50;31.00;;;;;18.07;60.01;101576.78;5096834;27;46328;-77
2021/09/02 09:34:53;;;;;;;;;32.00;28.50;;;;;18.17;60.11;101586.44;5097123;27;45787;-80
2021/09/02 09:37:20;;;;;;;;;36.75;30.00;;;;;18.20;60.30;101578.22;5097503;27;45682;-77
2021/09/02 09:39:48;;;;;;;;;31.25;28.25;;;;;18.25;60.02;101578.63;5097224;27;46450;-84
2021/09/02 09:42:17;;;;;;;;;31.50;26.75;;;;;18.36;60.23;101591.81;5097122;27;46233;-81
2021/09/02 09:44:42;;;;;;;;;31.50;29.50;;;;;18.41;59.72;101586.94;5096977;27;45540;-79
2021/09/02 09:47:12;;;;;;;;;27.25;24.75;;;;;18.42;59.47;101585.13;5097477;27;45396;-79
2021/09/02 09:49:41;;;;;;;;;32.50;29.75;;;;;18.52;59.55;101585.97;5096742;27;46313;-79
2021/09/02 09:52:46;;;;;;;;;29.50;26.00;;;;;18.57;59.91;101591.75;5095679;27;46159;-79
2021/09/02 09:55:13;;;;;;;;;29.50;26.00;;;;;18.63;59.51;101580.59;5054038;28;45783;-76
2021/09/02 09:57:41;;;;;;;;;31.25;27.75;;;;;18.70;59.44;101578.22;5053537;28;46065;-83
2021/09/02 10:00:14;;;;;;;;;30.00;27.25;;;;;18.71;59.33;101564.81;5053500;28;46279;-77
2021/09/02 10:02:44;;;;;;;;;26.50;23.00;;;;;18.83;59.39;101571.69;5057270;28;46174;-78
2021/09/02 10:05:12;;;;;;;;;26.00;25.00;;;;;18.89;59.28;101575.59;5059476;28;45720;-82
2021/09/02 10:07:40;;;;;;;;;31.50;26.00;;;;;18.98;58.76;101571.25;5058885;28;45834;-79
2021/09/02 10:10:09;;;;;;;;;28.25;24.25;;;;;19.04;58.61;101571.56;5058884;28;45662;-81
2021/09/02 10:12:36;;;;;;;;;30.00;26.00;;;;;19.07;58.69;101563.28;5040485;28;47168;-78
2021/09/02 10:15:10;;;;;;;;;29.25;23.50;;;;;19.19;58.98;101556.00;5054227;28;45822;-80
2021/09/02 10:17:37;;;;;;;;;31.00;27.75;;;;;19.25;58.85;101560.78;5054118;28;45620;-79
2021/09/02 10:20:10;;;;;;;;;31.25;26.75;;;;;19.28;58.17;101547.19;5036988;28;47454;-78
2021/09/02 10:22:35;;;;;;;;;26.00;23.00;;;;;19.41;58.26;101565.50;5054318;28;46273;-80
2021/09/02 10:25:04;;;;;;;;;27.75;23.50;;;;;19.47;57.85;101564.97;5054800;28;45720;-78
2021/09/02 10:27:34;;;;;;;;;24.50;23.75;;;;;19.54;58.06;101552.78;5053791;28;45806;-80
2021/09/02 10:29:59;;;;;;;;;24.50;22.25;;;;;19.60;58.15;101549.53;5053604;28;45685;-76
2021/09/02 10:32:28;;;;;;;;;26.75;23.50;;;;;19.66;57.83;101546.28;5092880;27;46570;-78
2021/09/02 10:35:06;;;;;;;;;23.50;21.50;;;;;19.72;57.76;101545.72;5096184;27;45691;-83
2021/09/02 10:37:35;;;;;;;;;26.75;24.00;;;;;19.78;57.58;101538.97;5098101;27;45802;-85
2021/09/02 10:40:27;;;;;;;;;28.00;24.75;;;;;19.84;57.58;101533.09;5099213;27;45548;-84
2021/09/02 10:42:57;;;;;;;;;25.00;23.25;;;;;19.90;57.29;101536.00;5090319;27;46334;-79
2021/09/02 10:45:26;;;;;;;;;22.50;19.00;;;;;20.00;57.35;101550.09;5096284;27;45771;-77
2021/09/02 10:48:06;;;;;;;;;19.25;18.00;;;;;20.08;57.09;101549.38;5096600;27;45616;-79
2021/09/02 10:50:35;;;;;;;;;26.00;24.25;;;;;20.11;56.95;101541.91;5096287;27;46312;-77
2021/09/02 10:53:17;;;;;;;;;21.75;19.25;;;;;20.21;57.02;101539.19;5096581;27;45442;-79
2021/09/02 10:55:56;;;;;;;;;23.75;20.50;;;;;20.27;56.78;101532.44;5096864;27;45781;-77
2021/09/02 10:58:38;;;;;;;;;21.75;20.75;;;;;20.34;56.50;101534.41;5096766;27;45433;-83
2021/09/02 11:01:29;;;;;;;;;19.75;18.25;;;;;20.40;56.09;101536.47;5096260;27;47256;-79
2021/09/02 11:04:03;;;;;;;;;21.25;18.00;;;;;20.46;56.08;101543.84;5096447;27;46460;-79
2021/09/02 11:06:29;;;;;;;;;23.25;20.00;;;;;20.52;55.61;101540.56;5096463;27;45572;-79
2021/09/02 11:08:54;;;;;;;;;18.25;16.50;;;;;20.51;55.62;101530.91;5096874;27;45785;-78
2021/09/02 11:11:22;;;;;;;;;16.75;15.75;;;;;20.65;55.37;101544.69;5096381;27;46415;-79
2021/09/02 11:13:53;;;;;;;;;15.75;14.75;;;;;20.73;55.80;101542.94;5096356;27;46231;-77
2021/09/02 11:16:23;;;;;;;;;24.00;17.50;;;;;20.78;55.05;101537.19;5096464;27;45611;-81
2021/09/02 11:18:51;;;;;;;;;18.75;17.75;;;;;20.86;55.16;101535.41;5096830;27;45850;-83
2021/09/02 11:21:17;;;;;;;;;16.50;16.50;;;;;20.97;54.83;101549.50;5096660;27;46525;-79
2021/09/02 11:23:48;;;;;;;;;19.00;16.75;;;;;21.00;54.60;101536.69;5096831;27;46285;-79
2021/09/02 11:26:39;;;;;;;;;14.50;13.75;;;;;21.09;54.49;101538.44;5097378;27;45564;-83
2021/09/02 11:29:06;;;;;;;;;16.50;15.00;;;;;21.17;54.31;101541.19;5096993;27;45940;-78
2021/09/02 11:31:32;;;;;;;;;20.25;16.00;;;;;21.10;54.45;101521.47;5096758;27;45634;-79
2021/09/02 11:34:00;;;;;;;;;14.75;13.25;;;;;21.30;54.20;101535.47;5095916;27;45759;-82
2021/09/02 11:36:26;;;;;;;;;16.50;14.25;;;;;21.29;53.79;101526.63;5095920;27;45708;-80
2021/09/02 11:39:06;;;;;;;;;13.25;12.25;;;;;21.42;54.09;101531.56;5096112;27;45694;-79
2021/09/02 11:41:32;;;;;;;;;14.25;11.00;;;;;21.48;53.61;101524.78;5094575;27;47855;-80
2021/09/02 11:43:57;;;;;;;;;14.00;13.00;;;;;21.53;53.42;101525.13;5095985;27;45955;-80
2021/09/02 11:46:23;;;;;;;;;13.50;12.75;;;;;21.60;52.93;101528.81;5096092;27;45567;-81
2021/09/02 11:48:57;;;;;;;;;14.25;13.25;;;;;21.64;53.06;101530.19;5101064;27;45674;-78
2021/09/02 11:51:31;;;;;;;;;15.75;12.75;;;;;21.66;52.89;101523.69;5102080;27;46303;-77
2021/09/02 11:54:11;;;;;;;;;13.25;12.50;;;;;21.76;52.31;101519.06;5100488;27;46421;-78
2021/09/02 11:56:41;;;;;;;;;11.25;10.25;;;;;21.70;52.31;101505.56;5099922;27;45541;-78
2021/09/02 11:59:08;;;;;;;;;14.25;13.50;;;;;21.78;52.27;101498.41;5100268;27;45735;-78
2021/09/02 12:01:43;;;;;;;;;13.50;12.00;;;;;21.90;51.48;101506.13;5099676;27;45803;-78
2021/09/02 12:04:18;;;;;;;;;14.00;13.75;;;;;21.92;51.38;101512.13;5098361;27;45709;-80
2021/09/02 12:06:45;;;;;;;;;15.25;14.50;;;;;21.96;51.27;101511.72;5095615;27;45546;-79
2021/09/02 12:09:11;;;;;;;;;16.00;13.00;;;;;22.01;51.50;101504.06;5095871;27;45524;-81
2021/09/02 12:11:39;;;;;;;;;14.50;12.00;;;;;22.06;51.09;101500.91;5096524;27;46889;-79
2021/09/02 12:14:18;;;;;;;;;13.25;12.75;;;;;22.10;51.17;101504.91;5095357;27;47014;-75
2021/09/02 12:16:44;;;;;;;;;13.25;12.75;;;;;22.09;51.00;101492.56;5095334;27;45714;-82
2021/09/02 12:19:10;;;;;;;;;13.00;12.25;;;;;22.15;50.65;101486.56;5095676;27;45895;-82
2021/09/02 12:21:37;;;;;;;;;12.75;12.50;;;;;22.25;51.13;101495.28;5076670;27;47521;-83